Guangnan, China
Current Conditions -  °F | °C
As of 1:00 PM on Saturday 25 Oct 2014 (Local Time) from ZPPP Reporting Station
Scattered Clouds Scattered Clouds  
Wind Chill: 64°   Ceiling: Unl
Heat Index: 64°   Visibility: 6mi
Dew Point: 48°   Wind: 13mph
Humidity: 56%   Direction: 220°SW
Pressure: 30.3"   Gusts: NA
Location:  24.07°N, 105.07°E
Report Text: ZPPP 250500Z 22006MPS 9999 SCT023 18/09 Q1026 NOSIG
Loading
Personal Weather Stations






























Interactive Weather Map
Tropical Storm Tracking
New forecast layout! Learn more

10-Day Weather Forecast

Advertisements
Track Severe Weather on mobile